Terminal Aerodrome Forecast
Issued by NWS

Home | Current Version | Previous Version | Text Only | Print | Product List | Glossary On
Versions: 1 2 3 4 5 6 7 8 9 10 11 12 13 14 15 16
947
FTUS41 KPHI 182324
TAFPNE
TAF
KPNE 182324Z 1900/1924 20008KT P6SM -SHRA OVC060
      TEMPO 1900/1903 4SM SHRA OVC035
     FM190300 20012G22KT P6SM VCSH OVC035 WS020/21040KT
     FM190700 21016G26KT 5SM SHRA SCT008 OVC015
     FM191100 22018G28KT P6SM VCSH OVC025
     FM191300 27020G36KT P6SM VCSH BKN040=

USA.gov is the U.S. government's official web portal to all federal, state and local government web resources and services.